Time,TemperatureF,DewpointF,PressureIn,WindDirection,WindDirectionDegrees,WindSpeedMPH,WindSpeedGustMPH,Humidity,HourlyPrecipIn,Conditions,Clouds,dailyrainin,SoftwareType,DateUTC
2017-05-22 00:04:00,52.3,47.9,30.24,ESE,109,0.0,0.0,85,0.03,,---,0.01,VWS V13.01,2017-05-22 04:04:00,
2017-05-22 00:09:00,52.2,48.2,30.24,SE,128,0.0,0.0,86,0.03,,---,0.01,VWS V13.01,2017-05-22 04:09:00,
2017-05-22 00:14:00,51.9,48.2,30.24,SE,129,0.0,0.0,87,0.05,,---,0.03,VWS V13.01,2017-05-22 04:14:00,
2017-05-22 00:19:00,51.7,48.0,30.23,SE,129,0.0,0.0,87,0.05,,---,0.03,VWS V13.01,2017-05-22 04:19:00,
2017-05-22 00:24:00,51.7,48.3,30.23,SE,129,0.0,0.0,88,0.06,,---,0.04,VWS V13.01,2017-05-22 04:24:00,
2017-05-22 00:29:00,51.6,48.5,30.23,SE,129,0.0,0.0,89,0.06,,---,0.04,VWS V13.01,2017-05-22 04:29:00,
2017-05-22 00:34:00,51.4,48.3,30.23,SE,129,0.0,0.0,89,0.06,,---,0.05,VWS V13.01,2017-05-22 04:34:00,
2017-05-22 00:39:00,51.3,48.2,30.23,ESE,111,0.0,0.0,89,0.06,,---,0.05,VWS V13.01,2017-05-22 04:39:00,
2017-05-22 00:44:00,51.3,48.5,30.23,ESE,112,0.0,0.0,90,0.06,,---,0.05,VWS V13.01,2017-05-22 04:44:00,
2017-05-22 00:49:00,51.1,48.3,30.22,SE,139,0.0,0.0,90,0.06,,---,0.05,VWS V13.01,2017-05-22 04:49:00,
2017-05-22 00:54:00,51.0,48.2,30.22,SE,139,0.0,0.0,90,0.06,,---,0.05,VWS V13.01,2017-05-22 04:54:00,
2017-05-22 00:59:00,50.8,48.0,30.22,SE,139,0.0,0.0,90,0.06,,---,0.05,VWS V13.01,2017-05-22 04:59:00,
2017-05-22 01:04:00,50.8,48.0,30.23,SE,139,0.0,0.0,90,0.05,,---,0.05,VWS V13.01,2017-05-22 05:04:00,
2017-05-22 01:09:00,50.7,47.9,30.23,ESE,119,0.0,0.0,90,0.05,,---,0.05,VWS V13.01,2017-05-22 05:09:00,
2017-05-22 01:14:00,50.5,47.7,30.23,SE,138,0.0,0.0,90,0.05,,---,0.05,VWS V13.01,2017-05-22 05:14:00,
2017-05-22 01:19:00,50.4,47.6,30.22,SE,124,0.0,0.0,90,0.06,,---,0.06,VWS V13.01,2017-05-22 05:19:00,
2017-05-22 01:24:00,50.2,47.1,30.22,SSE,148,0.0,0.0,89,0.06,,---,0.06,VWS V13.01,2017-05-22 05:24:00,
2017-05-22 01:29:00,50.2,47.1,30.22,SE,141,0.0,0.0,89,0.06,,---,0.06,VWS V13.01,2017-05-22 05:29:00,
2017-05-22 01:34:00,50.2,46.8,30.21,ESE,108,0.0,0.0,88,0.01,,---,0.06,VWS V13.01,2017-05-22 05:34:00,
2017-05-22 01:39:00,50.1,46.7,30.21,ESE,117,0.0,0.0,88,0.01,,---,0.06,VWS V13.01,2017-05-22 05:39:00,
2017-05-22 01:44:00,50.1,46.7,30.21,ESE,117,0.0,0.0,88,0.01,,---,0.06,VWS V13.01,2017-05-22 05:44:00,
2017-05-22 01:49:00,50.1,47.0,30.21,ESE,117,0.0,0.0,89,0.01,,---,0.06,VWS V13.01,2017-05-22 05:49:00,
2017-05-22 01:54:00,49.9,46.8,30.21,ESE,117,0.0,0.0,89,0.01,,---,0.06,VWS V13.01,2017-05-22 05:54:00,
2017-05-22 01:59:00,49.8,46.4,30.21,ESE,119,0.0,0.0,88,0.01,,---,0.06,VWS V13.01,2017-05-22 05:59:00,
2017-05-22 02:04:00,49.8,46.4,30.21,ESE,119,0.0,0.0,88,0.01,,---,0.06,VWS V13.01,2017-05-22 06:04:00,
2017-05-22 02:09:00,49.8,46.4,30.21,South,187,0.0,0.0,88,0.01,,---,0.06,VWS V13.01,2017-05-22 06:09:00,
2017-05-22 02:14:00,49.8,46.1,30.21,WSW,245,0.0,0.0,87,0.01,,---,0.06,VWS V13.01,2017-05-22 06:14:00,
2017-05-22 02:19:00,49.6,45.9,30.22,SW,222,0.0,0.0,87,0.02,,---,0.07,VWS V13.01,2017-05-22 06:19:00,
2017-05-22 02:24:00,49.5,45.8,30.22,SW,226,0.0,0.0,87,0.02,,---,0.07,VWS V13.01,2017-05-22 06:24:00,
2017-05-22 02:29:00,49.4,45.7,30.22,SW,219,0.0,0.0,87,0.02,,---,0.07,VWS V13.01,2017-05-22 06:29:00,
2017-05-22 02:34:00,49.2,45.5,30.22,SSW,200,0.0,0.0,87,0.01,,---,0.07,VWS V13.01,2017-05-22 06:34:00,
2017-05-22 02:39:00,49.2,45.8,30.22,SSW,200,0.0,0.0,88,0.01,,---,0.07,VWS V13.01,2017-05-22 06:39:00,
2017-05-22 02:44:00,49.1,45.7,30.22,SSW,200,0.0,0.0,88,0.01,,---,0.07,VWS V13.01,2017-05-22 06:44:00,
2017-05-22 02:49:00,49.1,45.7,30.21,SSW,200,0.0,0.0,88,0.01,,---,0.07,VWS V13.01,2017-05-22 06:49:00,
2017-05-22 02:54:00,48.9,45.8,30.21,SSW,198,0.0,0.0,89,0.01,,---,0.08,VWS V13.01,2017-05-22 06:54:00,
2017-05-22 02:59:00,48.9,46.1,30.21,SSW,198,0.0,0.0,90,0.02,,---,0.08,VWS V13.01,2017-05-22 06:59:00,
2017-05-22 03:04:00,49.1,46.3,30.20,SSW,198,0.0,0.0,90,0.02,,---,0.08,VWS V13.01,2017-05-22 07:04:00,
2017-05-22 03:09:00,49.1,46.6,30.20,SSW,198,0.0,0.0,91,0.02,,---,0.08,VWS V13.01,2017-05-22 07:09:00,
2017-05-22 03:14:00,49.1,46.6,30.20,SSW,198,0.0,0.0,91,0.02,,---,0.08,VWS V13.01,2017-05-22 07:14:00,
2017-05-22 03:19:00,48.9,46.7,30.21,SSW,198,0.0,0.0,92,0.02,,---,0.08,VWS V13.01,2017-05-22 07:19:00,
2017-05-22 03:24:00,48.8,46.3,30.21,SSW,199,0.0,0.0,91,0.02,,---,0.08,VWS V13.01,2017-05-22 07:24:00,
2017-05-22 03:29:00,48.5,46.0,30.21,SSW,205,0.0,0.0,91,0.03,,---,0.09,VWS V13.01,2017-05-22 07:29:00,
2017-05-22 03:34:00,48.2,45.4,30.21,South,178,0.0,0.0,90,0.02,,---,0.09,VWS V13.01,2017-05-22 07:34:00,
2017-05-22 03:35:00,48.2,45.4,30.21,South,178,0.0,0.0,90,0.02,,---,0.09,VWS V13.01,2017-05-22 07:35:00,
2017-05-22 03:40:00,47.9,44.5,30.21,SSW,198,0.0,0.0,88,0.02,,---,0.09,VWS V13.01,2017-05-22 07:40:00,
2017-05-22 03:45:00,47.9,44.2,30.21,SE,134,0.0,0.0,87,0.03,,---,0.10,VWS V13.01,2017-05-22 07:45:00,
2017-05-22 03:50:00,47.7,44.0,30.21,ESE,105,0.0,0.0,87,0.03,,---,0.10,VWS V13.01,2017-05-22 07:50:00,
2017-05-22 03:55:00,47.4,43.7,30.21,SSE,150,0.0,0.0,87,0.03,,---,0.10,VWS V13.01,2017-05-22 07:55:00,
2017-05-22 04:00:00,47.1,43.4,30.20,South,175,0.0,0.0,87,0.03,,---,0.10,VWS V13.01,2017-05-22 08:00:00,
2017-05-22 04:05:00,47.0,43.3,30.20,SE,137,0.0,0.0,87,0.03,,---,0.11,VWS V13.01,2017-05-22 08:05:00,
2017-05-22 04:10:00,46.8,43.1,30.20,SE,137,0.0,0.0,87,0.03,,---,0.11,VWS V13.01,2017-05-22 08:10:00,
2017-05-22 04:15:00,46.7,43.0,30.20,SE,138,0.0,0.0,87,0.03,,---,0.11,VWS V13.01,2017-05-22 08:15:00,
2017-05-22 04:20:00,46.5,43.1,30.20,SSE,160,0.0,0.0,88,0.03,,---,0.11,VWS V13.01,2017-05-22 08:20:00,
2017-05-22 04:25:00,46.4,43.0,30.20,ESE,115,0.0,0.0,88,0.03,,---,0.11,VWS V13.01,2017-05-22 08:25:00,
2017-05-22 04:30:00,46.4,43.0,30.20,ESE,115,0.0,0.0,88,0.03,,---,0.11,VWS V13.01,2017-05-22 08:30:00,
2017-05-22 04:35:00,46.4,43.3,30.20,ESE,113,0.0,0.0,89,0.02,,---,0.11,VWS V13.01,2017-05-22 08:35:00,
2017-05-22 04:40:00,46.4,43.6,30.20,East,95,0.0,0.0,90,0.03,,---,0.12,VWS V13.01,2017-05-22 08:40:00,
2017-05-22 04:45:00,46.4,43.6,30.19,East,95,0.0,0.0,90,0.03,,---,0.12,VWS V13.01,2017-05-22 08:45:00,
2017-05-22 04:50:00,46.2,43.4,30.19,ESE,118,0.0,0.0,90,0.03,,---,0.12,VWS V13.01,2017-05-22 08:50:00,
2017-05-22 04:55:00,46.1,43.3,30.19,SE,124,0.0,0.0,90,0.03,,---,0.12,VWS V13.01,2017-05-22 08:55:00,
2017-05-22 05:00:00,46.0,43.2,30.19,SE,124,0.0,0.0,90,0.03,,---,0.12,VWS V13.01,2017-05-22 09:00:00,
2017-05-22 05:05:00,46.0,43.2,30.19,SE,127,0.0,0.0,90,0.02,,---,0.12,VWS V13.01,2017-05-22 09:05:00,
2017-05-22 05:10:00,46.0,43.2,30.19,SE,127,0.0,0.0,90,0.02,,---,0.12,VWS V13.01,2017-05-22 09:10:00,
2017-05-22 05:15:00,46.0,43.2,30.20,SSW,193,0.0,0.0,90,0.02,,---,0.12,VWS V13.01,2017-05-22 09:15:00,
2017-05-22 05:20:00,46.0,43.0,30.20,South,191,0.0,0.0,89,0.02,,---,0.12,VWS V13.01,2017-05-22 09:20:00,
2017-05-22 05:25:00,46.0,42.7,30.20,SSE,154,0.0,0.0,88,0.02,,---,0.12,VWS V13.01,2017-05-22 09:25:00,
2017-05-22 05:30:00,46.0,42.3,30.20,SSE,153,0.0,0.0,87,0.03,,---,0.13,VWS V13.01,2017-05-22 09:30:00,
2017-05-22 05:35:00,45.8,42.2,30.20,SSE,154,0.0,0.0,87,0.02,,---,0.13,VWS V13.01,2017-05-22 09:35:00,
2017-05-22 05:40:00,45.8,42.5,30.20,SE,139,0.0,0.0,88,0.02,,---,0.13,VWS V13.01,2017-05-22 09:40:00,
2017-05-22 05:45:00,45.7,42.4,30.21,SSE,152,0.0,0.0,88,0.03,,---,0.14,VWS V13.01,2017-05-22 09:45:00,
2017-05-22 05:50:00,45.5,42.2,30.21,SSE,147,0.0,0.0,88,0.03,,---,0.14,VWS V13.01,2017-05-22 09:50:00,
2017-05-22 05:55:00,45.5,42.5,30.21,SE,127,0.0,0.0,89,0.04,,---,0.15,VWS V13.01,2017-05-22 09:55:00,
2017-05-22 06:00:00,45.5,42.5,30.20,SE,134,0.0,0.0,89,0.05,,---,0.16,VWS V13.01,2017-05-22 10:00:00,
2017-05-22 06:05:00,45.5,42.5,30.20,SE,134,0.0,0.0,89,0.04,,---,0.16,VWS V13.01,2017-05-22 10:05:00,
2017-05-22 06:10:00,45.4,42.6,30.20,SSE,161,0.0,0.0,90,0.05,,---,0.17,VWS V13.01,2017-05-22 10:10:00,
2017-05-22 06:15:00,45.4,42.6,30.20,SE,128,0.0,0.0,90,0.06,,---,0.18,VWS V13.01,2017-05-22 10:15:00,
2017-05-22 06:20:00,45.4,42.6,30.20,SE,129,0.0,0.0,90,0.06,,---,0.18,VWS V13.01,2017-05-22 10:20:00,
2017-05-22 06:25:00,45.4,42.6,30.20,SE,139,0.0,0.0,90,0.07,,---,0.19,VWS V13.01,2017-05-22 10:25:00,
2017-05-22 06:30:00,45.4,42.6,30.21,SSE,163,0.0,0.0,90,0.07,,---,0.19,VWS V13.01,2017-05-22 10:30:00,
2017-05-22 06:35:00,45.2,42.5,30.21,SSE,160,0.0,0.0,90,0.07,,---,0.20,VWS V13.01,2017-05-22 10:35:00,
2017-05-22 06:40:00,45.2,42.5,30.21,ESE,117,0.0,0.0,90,0.07,,---,0.20,VWS V13.01,2017-05-22 10:40:00,
2017-05-22 06:45:00,45.1,42.3,30.20,South,176,0.0,0.0,90,0.07,,---,0.20,VWS V13.01,2017-05-22 10:45:00,
2017-05-22 06:50:00,44.9,42.2,30.20,SSW,208,0.0,0.0,90,0.08,,---,0.21,VWS V13.01,2017-05-22 10:50:00,
2017-05-22 06:55:00,44.8,42.0,30.20,SE,135,0.0,0.0,90,0.08,,---,0.21,VWS V13.01,2017-05-22 10:55:00,
2017-05-22 07:00:00,44.8,42.0,30.20,SE,124,0.0,0.0,90,0.09,,---,0.22,VWS V13.01,2017-05-22 11:00:00,
2017-05-22 07:05:00,44.9,42.2,30.20,SE,141,0.0,0.0,90,0.06,,---,0.22,VWS V13.01,2017-05-22 11:05:00,
2017-05-22 07:10:00,45.1,42.3,30.20,SSE,165,0.0,0.0,90,0.06,,---,0.22,VWS V13.01,2017-05-22 11:10:00,
2017-05-22 07:15:00,45.1,42.6,30.20,SE,146,0.0,0.0,91,0.06,,---,0.22,VWS V13.01,2017-05-22 11:15:00,
2017-05-22 07:20:00,45.1,42.6,30.20,ESE,117,0.0,0.0,91,0.06,,---,0.22,VWS V13.01,2017-05-22 11:20:00,
2017-05-22 07:25:00,45.1,42.6,30.20,ESE,105,0.0,0.0,91,0.06,,---,0.22,VWS V13.01,2017-05-22 11:25:00,
2017-05-22 07:30:00,45.2,42.7,30.19,SE,134,0.0,0.0,91,0.06,,---,0.22,VWS V13.01,2017-05-22 11:30:00,
2017-05-22 07:35:00,45.2,42.5,30.19,SSE,157,0.0,0.0,90,0.02,,---,0.22,VWS V13.01,2017-05-22 11:35:00,
2017-05-22 07:40:00,45.2,42.5,30.19,SE,134,0.0,0.0,90,0.02,,---,0.22,VWS V13.01,2017-05-22 11:40:00,
2017-05-22 07:45:00,45.1,42.3,30.19,SE,140,0.0,0.0,90,0.02,,---,0.22,VWS V13.01,2017-05-22 11:45:00,
2017-05-22 07:50:00,45.2,42.5,30.19,SE,136,0.0,0.0,90,0.02,,---,0.22,VWS V13.01,2017-05-22 11:50:00,
2017-05-22 07:55:00,45.2,42.5,30.19,SE,138,0.0,0.0,90,0.02,,---,0.22,VWS V13.01,2017-05-22 11:55:00,
2017-05-22 08:00:00,45.2,42.2,30.18,SE,129,0.0,0.0,89,0.02,,---,0.22,VWS V13.01,2017-05-22 12:00:00,
2017-05-22 08:05:00,45.2,42.2,30.18,SSE,157,0.0,0.0,89,0.00,,---,0.22,VWS V13.01,2017-05-22 12:05:00,
2017-05-22 08:10:00,45.2,42.2,30.18,East,93,0.0,0.0,89,0.00,,---,0.22,VWS V13.01,2017-05-22 12:10:00,
2017-05-22 08:15:00,45.2,42.2,30.18,SE,136,0.0,0.0,89,0.00,,---,0.22,VWS V13.01,2017-05-22 12:15:00,
2017-05-22 08:20:00,45.4,42.3,30.18,SE,143,0.0,0.0,89,0.00,,---,0.22,VWS V13.01,2017-05-22 12:20:00,
2017-05-22 08:25:00,45.4,42.3,30.18,South,190,0.0,0.0,89,0.00,,---,0.22,VWS V13.01,2017-05-22 12:25:00,
2017-05-22 08:30:00,45.5,42.5,30.18,SSE,150,0.0,0.0,89,0.00,,---,0.22,VWS V13.01,2017-05-22 12:30:00,
2017-05-22 08:35:00,45.5,42.7,30.18,SE,145,0.0,0.0,90,0.00,,---,0.22,VWS V13.01,2017-05-22 12:35:00,
2017-05-22 08:40:00,45.8,43.0,30.18,ESE,121,0.0,0.0,90,0.00,,---,0.22,VWS V13.01,2017-05-22 12:40:00,
2017-05-22 08:45:00,45.8,43.0,30.18,SE,132,0.0,0.0,90,0.00,,---,0.22,VWS V13.01,2017-05-22 12:45:00,
2017-05-22 08:50:00,45.8,43.0,30.18,ESE,116,0.0,0.0,90,0.00,,---,0.22,VWS V13.01,2017-05-22 12:50:00,
2017-05-22 08:55:00,46.0,43.2,30.18,ESE,113,0.0,0.0,90,0.00,,---,0.22,VWS V13.01,2017-05-22 12:55:00,
2017-05-22 09:00:00,45.8,42.8,30.17,SSE,154,0.0,0.0,89,0.00,,---,0.22,VWS V13.01,2017-05-22 13:00:00,
2017-05-22 09:05:00,45.8,42.8,30.17,South,170,0.0,0.0,89,0.00,,---,0.22,VWS V13.01,2017-05-22 13:05:00,
2017-05-22 09:10:00,46.0,42.7,30.17,SE,143,0.0,0.0,88,0.00,,---,0.22,VWS V13.01,2017-05-22 13:10:00,
2017-05-22 09:15:00,46.1,42.5,30.18,SSE,156,0.0,0.0,87,0.00,,---,0.22,VWS V13.01,2017-05-22 13:15:00,
2017-05-22 09:20:00,46.2,42.5,30.18,SE,146,0.0,0.0,87,0.00,,---,0.22,VWS V13.01,2017-05-22 13:20:00,
2017-05-22 09:25:00,46.2,42.2,30.18,SSE,153,0.0,0.0,86,0.00,,---,0.22,VWS V13.01,2017-05-22 13:25:00,
2017-05-22 09:30:00,46.4,42.5,30.18,ESE,121,0.0,0.0,86,0.00,,---,0.22,VWS V13.01,2017-05-22 13:30:00,
2017-05-22 09:35:00,46.5,42.5,30.18,SSE,153,0.0,0.0,86,0.00,,---,0.22,VWS V13.01,2017-05-22 13:35:00,
2017-05-22 09:40:00,46.7,42.4,30.18,SE,146,0.0,0.0,85,0.00,,---,0.22,VWS V13.01,2017-05-22 13:40:00,
2017-05-22 09:45:00,46.8,42.5,30.17,SE,145,0.0,0.0,85,0.00,,---,0.22,VWS V13.01,2017-05-22 13:45:00,
2017-05-22 09:50:00,46.8,42.2,30.17,ESE,123,0.0,0.0,84,0.00,,---,0.22,VWS V13.01,2017-05-22 13:50:00,
2017-05-22 09:55:00,46.8,42.2,30.17,SE,139,0.0,0.0,84,0.00,,---,0.22,VWS V13.01,2017-05-22 13:55:00,
2017-05-22 10:00:00,47.0,42.1,30.17,SW,214,0.0,0.0,83,0.00,,---,0.22,VWS V13.01,2017-05-22 14:00:00,
2017-05-22 10:05:00,47.1,41.9,30.17,SSE,163,0.0,0.0,82,0.00,,---,0.22,VWS V13.01,2017-05-22 14:05:00,
2017-05-22 10:10:00,47.3,42.4,30.17,SE,144,0.0,0.0,83,0.00,,---,0.22,VWS V13.01,2017-05-22 14:10:00,
2017-05-22 10:15:00,47.3,42.1,30.16,SSE,158,0.0,0.0,82,0.00,,---,0.22,VWS V13.01,2017-05-22 14:15:00,
2017-05-22 10:20:00,47.4,42.2,30.16,South,179,0.0,0.0,82,0.00,,---,0.22,VWS V13.01,2017-05-22 14:20:00,
2017-05-22 10:25:00,47.4,42.2,30.16,South,176,0.0,0.0,82,0.00,,---,0.22,VWS V13.01,2017-05-22 14:25:00,
2017-05-22 10:30:00,47.6,42.1,30.15,SE,136,0.0,0.0,81,0.00,,---,0.22,VWS V13.01,2017-05-22 14:30:00,
2017-05-22 10:35:00,47.9,42.4,30.15,SE,134,0.0,0.0,81,0.00,,---,0.22,VWS V13.01,2017-05-22 14:35:00,
2017-05-22 10:40:00,48.2,42.3,30.15,SSE,149,0.0,0.0,80,0.00,,---,0.22,VWS V13.01,2017-05-22 14:40:00,
2017-05-22 10:45:00,48.3,41.4,30.15,SSE,150,0.0,0.0,77,0.00,,---,0.22,VWS V13.01,2017-05-22 14:45:00,
2017-05-22 10:50:00,48.5,42.0,30.15,SSE,157,0.0,0.0,78,0.00,,---,0.22,VWS V13.01,2017-05-22 14:50:00,
2017-05-22 10:55:00,48.3,41.4,30.15,SSE,150,0.0,0.0,77,0.00,,---,0.22,VWS V13.01,2017-05-22 14:55:00,
2017-05-22 11:00:00,48.5,42.0,30.15,ESE,123,0.0,0.0,78,0.00,,---,0.22,VWS V13.01,2017-05-22 15:00:00,
2017-05-22 11:05:00,48.6,42.1,30.15,SE,134,0.0,0.0,78,0.00,,---,0.22,VWS V13.01,2017-05-22 15:05:00,
2017-05-22 11:10:00,48.6,42.1,30.15,SSE,153,0.0,0.0,78,0.00,,---,0.22,VWS V13.01,2017-05-22 15:10:00,
2017-05-22 11:15:00,48.8,42.6,30.14,SE,134,0.0,0.0,79,0.00,,---,0.22,VWS V13.01,2017-05-22 15:15:00,
2017-05-22 11:20:00,48.8,41.9,30.14,SSE,155,0.0,0.0,77,0.00,,---,0.22,VWS V13.01,2017-05-22 15:20:00,
2017-05-22 11:25:00,48.9,42.3,30.14,SSE,161,0.0,0.0,78,0.00,,---,0.22,VWS V13.01,2017-05-22 15:25:00,
2017-05-22 11:30:00,49.2,42.3,30.13,SE,144,0.0,0.0,77,0.00,,---,0.22,VWS V13.01,2017-05-22 15:30:00,
2017-05-22 11:35:00,49.8,43.2,30.13,SSE,150,0.0,0.0,78,0.00,,---,0.22,VWS V13.01,2017-05-22 15:35:00,
2017-05-22 11:40:00,49.8,42.2,30.13,SE,132,0.0,0.0,75,0.00,,---,0.22,VWS V13.01,2017-05-22 15:40:00,
2017-05-22 11:45:00,49.9,42.3,30.13,SSW,203,0.0,0.0,75,0.00,,---,0.22,VWS V13.01,2017-05-22 15:45:00,
2017-05-22 11:50:00,50.1,42.8,30.13,SW,226,0.0,0.0,76,0.00,,---,0.22,VWS V13.01,2017-05-22 15:50:00,
2017-05-22 11:55:00,49.8,41.9,30.13,ESE,112,0.0,0.0,74,0.00,,---,0.22,VWS V13.01,2017-05-22 15:55:00,
2017-05-22 12:00:00,49.6,42.0,30.12,SE,146,0.0,0.0,75,0.00,,---,0.22,VWS V13.01,2017-05-22 16:00:00,
2017-05-22 12:05:00,49.5,42.3,30.12,SSE,154,0.0,0.0,76,0.00,,---,0.22,VWS V13.01,2017-05-22 16:05:00,
2017-05-22 12:06:00,49.5,42.3,30.12,SSE,150,0.0,0.0,76,0.00,,---,0.22,VWS V13.01,2017-05-22 16:06:00,
2017-05-22 12:11:00,49.6,42.7,30.12,SE,128,0.0,0.0,77,0.00,,---,0.22,VWS V13.01,2017-05-22 16:11:00,
2017-05-22 12:16:00,49.6,42.4,30.12,SE,140,0.0,0.0,76,0.00,,---,0.22,VWS V13.01,2017-05-22 16:16:00,
2017-05-22 12:21:00,49.8,42.9,30.12,SE,131,0.0,0.0,77,0.00,,---,0.22,VWS V13.01,2017-05-22 16:21:00,
2017-05-22 12:26:00,49.9,43.3,30.12,SE,131,0.0,0.0,78,0.00,,---,0.22,VWS V13.01,2017-05-22 16:26:00,
2017-05-22 12:31:00,49.8,42.9,30.12,South,169,0.0,0.0,77,0.00,,---,0.22,VWS V13.01,2017-05-22 16:31:00,
2017-05-22 12:36:00,49.5,42.6,30.12,SSW,197,0.0,0.0,77,0.00,,---,0.22,VWS V13.01,2017-05-22 16:36:00,
2017-05-22 12:41:00,49.4,42.5,30.12,SSW,193,0.0,0.0,77,0.00,,---,0.22,VWS V13.01,2017-05-22 16:41:00,
2017-05-22 12:46:00,49.4,42.8,30.12,SE,131,0.0,0.0,78,0.00,,---,0.22,VWS V13.01,2017-05-22 16:46:00,
2017-05-22 12:51:00,49.6,43.4,30.12,SE,139,0.0,0.0,79,0.00,,---,0.22,VWS V13.01,2017-05-22 16:51:00,
2017-05-22 12:56:00,49.8,43.2,30.12,SSE,147,0.0,0.0,78,0.00,,---,0.22,VWS V13.01,2017-05-22 16:56:00,
2017-05-22 13:01:00,49.8,43.6,30.12,SE,125,0.0,0.0,79,0.00,,---,0.22,VWS V13.01,2017-05-22 17:01:00,
2017-05-22 13:06:00,49.9,43.7,30.12,ESE,120,0.0,0.0,79,0.00,,---,0.22,VWS V13.01,2017-05-22 17:06:00,
2017-05-22 13:11:00,49.9,43.7,30.12,ESE,115,0.0,0.0,79,0.00,,---,0.22,VWS V13.01,2017-05-22 17:11:00,
2017-05-22 13:16:00,49.6,43.0,30.11,SE,124,0.0,0.0,78,0.00,,---,0.22,VWS V13.01,2017-05-22 17:16:00,
2017-05-22 13:21:00,49.6,43.4,30.11,ESE,117,0.0,0.0,79,0.00,,---,0.22,VWS V13.01,2017-05-22 17:21:00,
2017-05-22 13:26:00,49.8,43.2,30.11,SE,124,0.0,0.0,78,0.00,,---,0.22,VWS V13.01,2017-05-22 17:26:00,
2017-05-22 13:31:00,49.9,43.7,30.10,SE,134,0.0,0.0,79,0.00,,---,0.22,VWS V13.01,2017-05-22 17:31:00,
2017-05-22 13:36:00,49.9,43.7,30.10,SSE,157,0.0,0.0,79,0.00,,---,0.22,VWS V13.01,2017-05-22 17:36:00,
2017-05-22 13:41:00,49.9,44.0,30.10,ESE,122,0.0,0.0,80,0.00,,---,0.22,VWS V13.01,2017-05-22 17:41:00,
2017-05-22 13:46:00,50.1,44.2,30.09,ESE,122,0.0,0.0,80,0.00,,---,0.22,VWS V13.01,2017-05-22 17:46:00,
2017-05-22 13:51:00,50.1,44.5,30.09,SE,138,0.0,0.0,81,0.00,,---,0.22,VWS V13.01,2017-05-22 17:51:00,
2017-05-22 13:56:00,49.6,44.3,30.09,East,98,0.0,0.0,82,0.01,,---,0.23,VWS V13.01,2017-05-22 17:56:00,
2017-05-22 14:01:00,49.4,44.8,30.09,SE,146,0.0,0.0,84,0.02,,---,0.24,VWS V13.01,2017-05-22 18:01:00,
2017-05-22 14:06:00,49.1,45.1,30.09,SE,139,0.0,0.0,86,0.02,,---,0.25,VWS V13.01,2017-05-22 18:06:00,
2017-05-22 14:11:00,48.9,45.2,30.09,SE,141,0.0,0.0,87,0.03,,---,0.25,VWS V13.01,2017-05-22 18:11:00,
2017-05-22 14:16:00,48.9,45.5,30.08,SE,141,0.0,0.0,88,0.04,,---,0.26,VWS V13.01,2017-05-22 18:16:00,
2017-05-22 14:21:00,48.8,45.7,30.08,SE,141,0.0,0.0,89,0.05,,---,0.27,VWS V13.01,2017-05-22 18:21:00,
2017-05-22 14:26:00,48.6,45.5,30.08,SE,141,0.0,0.0,89,0.06,,---,0.28,VWS V13.01,2017-05-22 18:26:00,
2017-05-22 14:29:00,48.6,45.5,30.08,SE,141,0.0,0.0,89,0.06,,---,0.28,VWS V13.01,2017-05-22 18:29:00,
2017-05-22 14:31:00,48.6,45.8,30.09,SE,141,0.0,0.0,90,0.06,,---,0.28,VWS V13.01,2017-05-22 18:31:00,
2017-05-22 14:36:00,48.6,45.8,30.09,SE,141,0.0,0.0,90,0.07,,---,0.29,VWS V13.01,2017-05-22 18:36:00,
2017-05-22 14:41:00,48.6,45.8,30.09,SE,141,0.0,0.0,90,0.07,,---,0.29,VWS V13.01,2017-05-22 18:41:00,
2017-05-22 14:45:00,48.6,45.8,30.09,SE,141,0.0,0.0,90,0.08,,---,0.30,VWS V13.01,2017-05-22 18:45:00,
2017-05-22 14:50:00,48.5,46.0,30.09,SSE,149,0.0,0.0,91,0.08,,---,0.30,VWS V13.01,2017-05-22 18:50:00,
2017-05-22 14:55:00,48.3,45.5,30.09,ESE,103,0.0,0.0,90,0.09,,---,0.31,VWS V13.01,2017-05-22 18:55:00,
2017-05-22 15:00:00,48.0,45.2,30.07,SE,124,0.0,0.0,90,0.09,,---,0.31,VWS V13.01,2017-05-22 19:00:00,
2017-05-22 15:05:00,48.0,45.5,30.07,ESE,123,0.0,0.0,91,0.07,,---,0.31,VWS V13.01,2017-05-22 19:05:00,
2017-05-22 15:10:00,48.2,45.7,30.07,ESE,122,0.0,0.0,91,0.07,,---,0.31,VWS V13.01,2017-05-22 19:10:00,
2017-05-22 15:15:00,48.2,45.7,30.07,SE,128,0.0,0.0,91,0.08,,---,0.32,VWS V13.01,2017-05-22 19:15:00,
2017-05-22 15:20:00,48.2,45.7,30.07,SE,124,0.0,0.0,91,0.08,,---,0.32,VWS V13.01,2017-05-22 19:20:00,
2017-05-22 15:25:00,48.0,45.5,30.07,SE,146,0.0,0.0,91,0.08,,---,0.32,VWS V13.01,2017-05-22 19:25:00,
2017-05-22 15:30:00,47.9,45.4,30.07,SE,144,0.0,0.0,91,0.08,,---,0.32,VWS V13.01,2017-05-22 19:30:00,
2017-05-22 15:35:00,47.9,45.4,30.07,SE,144,0.0,0.0,91,0.04,,---,0.32,VWS V13.01,2017-05-22 19:35:00,
2017-05-22 15:40:00,47.9,45.7,30.07,ESE,123,0.0,0.0,92,0.04,,---,0.32,VWS V13.01,2017-05-22 19:40:00,
2017-05-22 15:45:00,48.0,45.8,30.06,ESE,123,0.0,0.0,92,0.04,,---,0.32,VWS V13.01,2017-05-22 19:45:00,
2017-05-22 15:50:00,48.0,45.8,30.06,ESE,123,0.0,0.0,92,0.04,,---,0.32,VWS V13.01,2017-05-22 19:50:00,
2017-05-22 15:55:00,48.0,45.8,30.06,ESE,123,0.0,0.0,92,0.04,,---,0.32,VWS V13.01,2017-05-22 19:55:00,
2017-05-22 16:00:00,48.0,46.1,30.08,ESE,123,0.0,0.0,93,0.04,,---,0.32,VWS V13.01,2017-05-22 20:00:00,
2017-05-22 16:05:00,48.0,46.1,30.08,ESE,123,0.0,0.0,93,0.01,,---,0.32,VWS V13.01,2017-05-22 20:05:00,
2017-05-22 16:10:00,48.0,46.1,30.08,NE,37,0.0,0.0,93,0.01,,---,0.32,VWS V13.01,2017-05-22 20:10:00,
2017-05-22 16:15:00,48.0,46.1,30.08,NE,37,0.0,0.0,93,0.01,,---,0.32,VWS V13.01,2017-05-22 20:15:00,
2017-05-22 16:20:00,48.0,46.1,30.08,NE,37,0.0,0.0,93,0.01,,---,0.32,VWS V13.01,2017-05-22 20:20:00,
2017-05-22 16:25:00,48.0,46.1,30.08,ENE,65,0.0,0.0,93,0.02,,---,0.33,VWS V13.01,2017-05-22 20:25:00,
2017-05-22 16:30:00,47.9,46.0,30.05,ESE,107,0.0,0.0,93,0.03,,---,0.34,VWS V13.01,2017-05-22 20:30:00,
2017-05-22 16:35:00,47.7,46.1,30.05,ESE,107,0.0,0.0,94,0.03,,---,0.35,VWS V13.01,2017-05-22 20:35:00,
2017-05-22 16:40:00,47.7,46.1,30.05,ESE,107,0.0,0.0,94,0.04,,---,0.36,VWS V13.01,2017-05-22 20:40:00,
2017-05-22 16:45:00,47.9,46.3,30.06,ESE,103,0.0,0.0,94,0.04,,---,0.37,VWS V13.01,2017-05-22 20:45:00,
2017-05-22 16:50:00,47.9,46.3,30.06,SE,127,0.0,0.0,94,0.06,,---,0.38,VWS V13.01,2017-05-22 20:50:00,
2017-05-22 16:55:00,47.9,46.3,30.06,SE,127,0.0,0.0,94,0.06,,---,0.38,VWS V13.01,2017-05-22 20:55:00,
2017-05-22 17:00:00,48.0,46.4,30.05,ESE,107,0.0,0.0,94,0.07,,---,0.39,VWS V13.01,2017-05-22 21:00:00,
2017-05-22 17:05:00,48.0,46.4,30.05,SSE,151,0.0,0.0,94,0.08,,---,0.40,VWS V13.01,2017-05-22 21:05:00,
2017-05-22 17:10:00,48.0,46.4,30.05,SSE,150,0.0,0.0,94,0.09,,---,0.41,VWS V13.01,2017-05-22 21:10:00,
2017-05-22 17:15:00,48.2,46.6,30.05,South,171,0.0,0.0,94,0.10,,---,0.42,VWS V13.01,2017-05-22 21:15:00,
2017-05-22 17:16:00,48.2,46.6,30.05,South,171,0.0,0.0,94,0.10,,---,0.42,VWS V13.01,2017-05-22 21:16:00,
2017-05-22 17:21:00,48.2,46.6,30.05,SE,128,0.0,0.0,94,0.10,,---,0.42,VWS V13.01,2017-05-22 21:21:00,
2017-05-22 17:26:00,48.2,46.6,30.05,ESE,118,0.0,0.0,94,0.11,,---,0.43,VWS V13.01,2017-05-22 21:26:00,
2017-05-22 17:31:00,48.2,46.6,30.05,ESE,118,0.0,0.0,94,0.12,,---,0.44,VWS V13.01,2017-05-22 21:31:00,
2017-05-22 17:36:00,48.2,46.6,30.05,ESE,118,0.0,0.0,94,0.10,,---,0.44,VWS V13.01,2017-05-22 21:36:00,
2017-05-22 17:41:00,48.2,46.6,30.05,ESE,118,0.0,0.0,94,0.11,,---,0.45,VWS V13.01,2017-05-22 21:41:00,
2017-05-22 17:46:00,48.3,46.9,30.04,ESE,118,0.0,0.0,95,0.12,,---,0.46,VWS V13.01,2017-05-22 21:46:00,
2017-05-22 17:51:00,48.3,46.7,30.04,ESE,118,0.0,0.0,94,0.12,,---,0.46,VWS V13.01,2017-05-22 21:51:00,
2017-05-22 17:56:00,48.2,46.6,30.04,ESE,118,0.0,0.0,94,0.13,,---,0.47,VWS V13.01,2017-05-22 21:56:00,
2017-05-22 18:01:00,48.2,46.6,30.04,ESE,118,0.0,0.0,94,0.14,,---,0.48,VWS V13.01,2017-05-22 22:01:00,
2017-05-22 18:06:00,48.2,46.8,30.04,ESE,118,0.0,0.0,95,0.09,,---,0.48,VWS V13.01,2017-05-22 22:06:00,
2017-05-22 18:11:00,48.2,46.8,30.04,ESE,118,0.0,0.0,95,0.09,,---,0.49,VWS V13.01,2017-05-22 22:11:00,
2017-05-22 18:16:00,48.2,46.8,30.04,ESE,118,0.0,0.0,95,0.10,,---,0.49,VWS V13.01,2017-05-22 22:16:00,
2017-05-22 18:21:00,48.0,46.6,30.04,ESE,118,0.0,0.0,95,0.11,,---,0.50,VWS V13.01,2017-05-22 22:21:00,
2017-05-22 18:26:00,48.0,46.6,30.04,ESE,118,0.0,0.0,95,0.11,,---,0.50,VWS V13.01,2017-05-22 22:26:00,
2017-05-22 18:31:00,48.0,46.6,30.03,ESE,118,0.0,0.0,95,0.11,,---,0.51,VWS V13.01,2017-05-22 22:31:00,
2017-05-22 18:36:00,48.2,46.8,30.03,ESE,118,0.0,0.0,95,0.07,,---,0.51,VWS V13.01,2017-05-22 22:36:00,
2017-05-22 18:41:00,48.2,46.8,30.03,ESE,118,0.0,0.0,95,0.08,,---,0.52,VWS V13.01,2017-05-22 22:41:00,
2017-05-22 18:46:00,48.0,46.6,30.03,ESE,121,0.0,0.0,95,0.08,,---,0.52,VWS V13.01,2017-05-22 22:46:00,
2017-05-22 18:51:00,48.0,46.6,30.03,ESE,121,0.0,0.0,95,0.08,,---,0.52,VWS V13.01,2017-05-22 22:51:00,
2017-05-22 18:56:00,48.2,46.8,30.03,ESE,121,0.0,0.0,95,0.09,,---,0.53,VWS V13.01,2017-05-22 22:56:00,